createdAt,value
2019-02-22T00:02:37.565Z,21.68
2019-02-22T00:05:41.704Z,21.65
2019-02-22T00:08:45.841Z,21.65
2019-02-22T00:11:49.961Z,21.65
2019-02-22T00:14:54.105Z,21.65
2019-02-22T00:17:58.237Z,21.65
2019-02-22T00:21:02.383Z,21.62
2019-02-22T00:24:06.539Z,21.62
2019-02-22T00:27:10.661Z,21.63
2019-02-22T00:30:14.813Z,21.59
2019-02-22T00:33:18.932Z,21.56
2019-02-22T00:36:23.124Z,21.53
2019-02-22T00:39:27.201Z,21.55
2019-02-22T00:42:31.350Z,21.55
2019-02-22T00:45:35.491Z,21.53
2019-02-22T00:48:39.611Z,21.50
2019-02-22T00:51:43.753Z,21.52
2019-02-22T00:54:47.873Z,21.50
2019-02-22T00:57:52.012Z,21.53
2019-02-22T01:00:56.180Z,21.48
2019-02-22T01:04:00.393Z,21.49
2019-02-22T01:07:04.804Z,21.47
2019-02-22T01:10:08.997Z,21.46
2019-02-22T01:13:13.140Z,21.46
2019-02-22T01:16:17.260Z,21.43
2019-02-22T01:19:21.405Z,21.46
2019-02-22T01:22:25.548Z,21.43
2019-02-22T01:25:29.676Z,21.42
2019-02-22T01:28:33.829Z,21.42
2019-02-22T01:31:37.943Z,21.39
2019-02-22T01:34:42.089Z,21.41
2019-02-22T01:37:46.225Z,21.43
2019-02-22T01:40:50.346Z,21.39
2019-02-22T01:43:54.490Z,21.36
2019-02-22T01:46:58.612Z,21.35
2019-02-22T01:50:02.756Z,21.36
2019-02-22T01:53:06.905Z,21.37
2019-02-22T01:56:11.031Z,21.38
2019-02-22T01:59:15.178Z,21.35
2019-02-22T02:02:19.303Z,21.33
2019-02-22T02:05:23.446Z,21.35
2019-02-22T02:08:27.591Z,21.35
2019-02-22T02:11:31.710Z,21.31
2019-02-22T02:14:35.860Z,21.32
2019-02-22T02:17:39.990Z,21.30
2019-02-22T02:20:44.189Z,21.27
2019-02-22T02:23:48.299Z,21.32
2019-02-22T02:26:52.445Z,21.27
2019-02-22T02:29:56.606Z,21.25
2019-02-22T02:33:00.725Z,21.25
2019-02-22T02:36:04.912Z,21.28
2019-02-22T02:39:09.037Z,21.26
2019-02-22T02:42:13.190Z,21.25
2019-02-22T02:45:17.325Z,21.24
2019-02-22T02:48:21.468Z,21.25
2019-02-22T02:51:25.599Z,21.23
2019-02-22T02:54:29.716Z,21.21
2019-02-22T02:57:33.865Z,21.23
2019-02-22T03:00:38.174Z,21.21
2019-02-22T03:03:42.302Z,21.23
2019-02-22T03:06:50.717Z,21.21
2019-02-22T03:09:54.843Z,21.21
2019-02-22T03:12:58.986Z,21.19
2019-02-22T03:16:03.128Z,21.21
2019-02-22T03:19:07.263Z,21.18
2019-02-22T03:22:11.454Z,21.19
2019-02-22T03:25:15.574Z,21.17
2019-02-22T03:28:19.721Z,21.16
2019-02-22T03:31:23.840Z,21.14
2019-02-22T03:34:27.988Z,21.14
2019-02-22T03:37:32.151Z,21.15
2019-02-22T03:40:36.445Z,21.15
2019-02-22T03:43:40.584Z,21.15
2019-02-22T03:46:44.709Z,21.11
2019-02-22T03:49:48.849Z,21.13
2019-02-22T03:52:57.180Z,21.10
2019-02-22T03:56:01.307Z,21.11
2019-02-22T03:59:05.823Z,21.11
2019-02-22T04:02:09.946Z,21.07
2019-02-22T04:05:14.091Z,21.07
2019-02-22T04:08:18.212Z,21.05
2019-02-22T04:11:22.357Z,21.07
2019-02-22T04:14:26.504Z,21.05
2019-02-22T04:17:30.625Z,21.04
2019-02-22T04:20:34.787Z,21.05
2019-02-22T04:23:38.914Z,21.03
2019-02-22T04:26:43.044Z,21.04
2019-02-22T04:29:47.193Z,21.02
2019-02-22T04:32:51.321Z,21.03
2019-02-22T04:35:55.469Z,21.02
2019-02-22T04:38:59.588Z,21.02
2019-02-22T04:42:03.764Z,21.02
2019-02-22T04:45:07.893Z,21.00
2019-02-22T04:48:12.024Z,21.03
2019-02-22T04:51:16.165Z,21.03
2019-02-22T04:54:20.303Z,21.00
2019-02-22T04:57:24.442Z,21.00
2019-02-22T05:00:28.561Z,21.01
2019-02-22T05:03:32.711Z,21.01
2019-02-22T05:06:36.852Z,21.00
2019-02-22T05:09:40.979Z,20.97
2019-02-22T05:12:45.126Z,20.98
2019-02-22T05:15:49.249Z,20.97
2019-02-22T05:18:53.402Z,20.96
2019-02-22T05:21:57.519Z,20.97
2019-02-22T05:25:01.666Z,20.98
2019-02-22T05:28:05.813Z,20.97
2019-02-22T05:31:09.939Z,20.98
2019-02-22T05:34:14.085Z,20.95
2019-02-22T05:37:18.208Z,20.96
2019-02-22T05:40:22.352Z,20.95
2019-02-22T05:43:26.498Z,20.94
2019-02-22T05:46:30.617Z,20.94
2019-02-22T05:49:34.763Z,20.94
2019-02-22T05:52:38.980Z,20.92
2019-02-22T05:55:44.268Z,20.93
2019-02-22T05:58:48.501Z,20.91
2019-02-22T06:01:52.650Z,20.93
2019-02-22T06:04:56.793Z,20.89
2019-02-22T06:08:00.919Z,20.92
2019-02-22T06:11:05.061Z,20.91
2019-02-22T06:14:09.186Z,20.91
2019-02-22T06:17:14.758Z,20.89
2019-02-22T06:20:19.137Z,20.87
2019-02-22T06:23:23.281Z,20.87
2019-02-22T06:26:27.427Z,20.89
2019-02-22T06:29:31.549Z,20.87
2019-02-22T06:32:35.695Z,20.86
2019-02-22T06:35:39.818Z,20.87
2019-02-22T06:38:46.575Z,20.86
2019-02-22T06:41:49.785Z,20.84
2019-02-22T06:44:53.928Z,20.85
2019-02-22T06:47:58.073Z,20.85
2019-02-22T06:51:02.198Z,20.84
2019-02-22T06:54:06.345Z,20.84
2019-02-22T06:57:10.470Z,20.82
2019-02-22T07:00:14.681Z,20.84
2019-02-22T07:03:18.824Z,20.82
2019-02-22T07:06:22.952Z,20.82
2019-02-22T07:09:27.097Z,20.78
2019-02-22T07:12:32.866Z,20.79
2019-02-22T07:15:37.009Z,20.79
2019-02-22T07:18:41.177Z,20.76
2019-02-22T07:21:52.668Z,20.76
2019-02-22T07:24:51.161Z,20.74
2019-02-22T07:27:55.286Z,20.75
2019-02-22T07:30:59.428Z,20.72
2019-02-22T07:34:03.550Z,20.76
2019-02-22T07:37:07.702Z,20.76
2019-02-22T07:40:11.861Z,20.74
2019-02-22T07:43:15.977Z,20.74
2019-02-22T07:46:20.181Z,20.73
2019-02-22T07:49:26.140Z,20.74
2019-02-22T07:52:30.286Z,20.91
2019-02-22T07:55:34.446Z,21.02
2019-02-22T07:58:38.568Z,21.08
2019-02-22T08:01:47.333Z,21.29
2019-02-22T08:04:48.534Z,21.39
2019-02-22T08:07:52.677Z,21.46
2019-02-22T08:10:56.797Z,21.58
2019-02-22T08:14:00.943Z,21.67
2019-02-22T08:17:05.086Z,21.76
2019-02-22T08:20:09.577Z,21.83
2019-02-22T08:23:13.737Z,21.90
2019-02-22T08:26:17.858Z,21.98
2019-02-22T08:29:22.001Z,22.10
2019-02-22T08:32:26.157Z,22.19
2019-02-22T08:35:30.269Z,22.14
2019-02-22T08:38:34.420Z,22.17
2019-02-22T08:41:38.541Z,22.20
2019-02-22T08:44:42.701Z,22.24
2019-02-22T08:47:46.849Z,22.28
2019-02-22T08:50:50.973Z,22.32
2019-02-22T08:53:55.121Z,22.36
2019-02-22T08:56:59.242Z,22.38
2019-02-22T09:00:03.480Z,22.36
2019-02-22T09:03:07.590Z,22.42
2019-02-22T09:06:11.729Z,22.44
2019-02-22T09:09:15.876Z,22.44
2019-02-22T09:12:20.002Z,22.42
2019-02-22T09:15:24.145Z,22.49
2019-02-22T09:18:28.267Z,22.52
2019-02-22T09:21:32.416Z,22.53
2019-02-22T09:24:36.564Z,22.57
2019-02-22T09:27:40.703Z,22.59
2019-02-22T09:30:44.850Z,22.62
2019-02-22T09:33:48.971Z,22.63
2019-02-22T09:36:53.122Z,22.65
2019-02-22T09:39:57.269Z,22.63
2019-02-22T09:43:01.398Z,22.68
2019-02-22T09:46:05.541Z,22.69
2019-02-22T09:49:09.716Z,22.64
2019-02-22T09:52:13.861Z,22.62
2019-02-22T09:55:18.029Z,22.60
2019-02-22T09:58:22.152Z,22.58
2019-02-22T10:01:26.300Z,22.61
2019-02-22T10:04:30.420Z,22.60
2019-02-22T10:07:34.565Z,22.61
2019-02-22T10:10:38.685Z,22.59
2019-02-22T10:13:42.830Z,22.60
2019-02-22T10:16:47.134Z,22.57
2019-02-22T10:19:51.276Z,22.58
2019-02-22T10:22:55.419Z,22.56
2019-02-22T10:25:59.541Z,22.49
2019-02-22T10:29:03.689Z,22.49
2019-02-22T10:32:07.828Z,22.46
2019-02-22T10:35:11.970Z,22.44
2019-02-22T10:38:16.120Z,22.45
2019-02-22T10:41:20.244Z,22.40
2019-02-22T10:44:24.392Z,22.34
2019-02-22T10:47:28.714Z,22.34
2019-02-22T10:50:32.830Z,22.33
2019-02-22T10:53:36.973Z,22.29
2019-02-22T10:56:41.098Z,22.28
2019-02-22T10:59:45.241Z,22.15
2019-02-22T11:02:49.384Z,21.57
2019-02-22T11:05:53.510Z,21.97
2019-02-22T11:08:57.658Z,22.18
2019-02-22T11:12:01.783Z,21.36
2019-02-22T11:15:08.532Z,20.83
2019-02-22T11:18:12.677Z,20.27
2019-02-22T11:21:16.801Z,20.22
2019-02-22T11:24:20.972Z,20.13
2019-02-22T11:27:25.094Z,19.92
2019-02-22T11:30:29.247Z,20.67
2019-02-22T11:33:33.401Z,21.71
2019-02-22T11:36:37.525Z,21.93
2019-02-22T11:39:42.257Z,21.94
2019-02-22T11:42:46.370Z,21.97
2019-02-22T11:45:50.521Z,21.99
2019-02-22T11:48:54.644Z,22.03
2019-02-22T11:51:58.797Z,22.03
2019-02-22T11:55:03.873Z,22.05
2019-02-22T11:58:07.998Z,22.05
2019-02-22T12:01:12.962Z,22.06
2019-02-22T12:04:17.109Z,22.08
2019-02-22T12:07:21.232Z,22.14
2019-02-22T12:10:25.380Z,22.27
2019-02-22T12:13:31.879Z,22.36
2019-02-22T12:16:35.345Z,22.43
2019-02-22T12:19:39.492Z,22.45
2019-02-22T12:22:43.613Z,22.52
2019-02-22T12:25:47.756Z,22.51
2019-02-22T12:28:51.876Z,22.55
2019-02-22T12:31:56.023Z,22.59
2019-02-22T12:35:00.334Z,22.63
2019-02-22T12:38:04.466Z,22.64
2019-02-22T12:41:09.508Z,22.60
2019-02-22T12:44:13.647Z,22.68
2019-02-22T12:47:17.797Z,22.68
2019-02-22T12:50:21.940Z,22.78
2019-02-22T12:53:26.060Z,22.78
2019-02-22T12:56:55.911Z,22.77
2019-02-22T12:59:36.024Z,22.79
2019-02-22T13:02:40.170Z,22.85
2019-02-22T13:05:44.313Z,22.82
2019-02-22T13:08:48.437Z,22.91
2019-02-22T13:11:52.585Z,22.84
2019-02-22T13:14:56.710Z,22.56
2019-02-22T13:18:02.979Z,22.57
2019-02-22T13:21:06.696Z,22.55
2019-02-22T13:24:10.826Z,22.52
2019-02-22T13:27:14.973Z,22.51
2019-02-22T13:30:19.093Z,22.51
2019-02-22T13:33:23.244Z,22.46
2019-02-22T13:36:27.391Z,22.49
2019-02-22T13:39:31.518Z,22.51
2019-02-22T13:42:35.660Z,22.47
2019-02-22T13:45:39.856Z,22.40
2019-02-22T13:48:44.005Z,22.40
2019-02-22T13:51:48.163Z,22.40
2019-02-22T13:54:52.295Z,22.37
2019-02-22T13:57:56.440Z,22.36
2019-02-22T14:01:00.556Z,22.31
2019-02-22T14:04:04.703Z,22.31
2019-02-22T14:07:08.829Z,22.30
2019-02-22T14:10:12.974Z,22.31
2019-02-22T14:13:17.120Z,22.36
2019-02-22T14:16:21.241Z,22.26
2019-02-22T14:19:25.386Z,22.18
2019-02-22T14:22:29.506Z,22.12
2019-02-22T14:25:35.579Z,22.04
2019-02-22T14:28:39.734Z,22.05
2019-02-22T14:31:43.878Z,21.99
2019-02-22T14:34:48.089Z,22.13
2019-02-22T14:37:52.326Z,22.23
2019-02-22T14:40:56.445Z,22.30
2019-02-22T14:44:00.565Z,22.31
2019-02-22T14:47:04.713Z,22.37
2019-02-22T14:50:12.036Z,22.57
2019-02-22T14:53:19.503Z,22.52
2019-02-22T14:56:22.003Z,22.70
2019-02-22T14:59:26.138Z,22.59
2019-02-22T15:02:30.280Z,22.60
2019-02-22T15:05:34.428Z,22.46
2019-02-22T15:08:38.549Z,22.42
2019-02-22T15:11:42.693Z,22.44
2019-02-22T15:14:47.056Z,22.52
2019-02-22T15:17:58.596Z,22.48
2019-02-22T15:21:02.753Z,22.45
2019-02-22T15:24:06.873Z,22.40
2019-02-22T15:27:11.019Z,22.40
2019-02-22T15:30:18.470Z,22.39
2019-02-22T15:33:22.581Z,22.35
2019-02-22T15:36:26.738Z,22.34
2019-02-22T15:39:30.864Z,22.31
2019-02-22T15:42:35.009Z,22.36
2019-02-22T15:45:39.130Z,22.32
2019-02-22T15:48:45.277Z,22.35
2019-02-22T15:51:49.496Z,22.43
2019-02-22T15:54:53.646Z,22.52
2019-02-22T15:57:57.797Z,22.52
2019-02-22T16:01:01.924Z,22.60
2019-02-22T16:04:10.189Z,22.61
2019-02-22T16:07:14.347Z,22.49
2019-02-22T16:10:18.478Z,22.50
2019-02-22T16:13:22.614Z,22.51
2019-02-22T16:16:26.738Z,22.58
2019-02-22T16:19:30.884Z,22.59
2019-02-22T16:22:35.030Z,22.62
2019-02-22T16:25:39.153Z,22.68
2019-02-22T16:28:43.301Z,22.75
2019-02-22T16:31:47.428Z,22.78
2019-02-22T16:34:51.568Z,22.84
2019-02-22T16:37:55.689Z,22.85
2019-02-22T16:40:59.833Z,22.86
2019-02-22T16:44:03.977Z,22.87
2019-02-22T16:47:08.103Z,22.91
2019-02-22T16:50:13.491Z,22.92
2019-02-22T16:53:17.614Z,22.95
2019-02-22T16:56:21.762Z,22.95
2019-02-22T16:59:25.905Z,22.93
2019-02-22T17:02:30.052Z,22.96
2019-02-22T17:05:34.364Z,23.03
2019-02-22T17:08:38.476Z,22.98
2019-02-22T17:11:42.635Z,22.98
2019-02-22T17:14:46.786Z,23.08
2019-02-22T17:17:50.995Z,23.10
2019-02-22T17:20:55.147Z,23.08
2019-02-22T17:23:59.275Z,23.06
2019-02-22T17:27:03.466Z,23.21
2019-02-22T17:30:12.856Z,23.12
2019-02-22T17:33:16.987Z,23.11
2019-02-22T17:36:26.833Z,23.20
2019-02-22T17:39:26.967Z,23.16
2019-02-22T17:42:31.109Z,23.17
2019-02-22T17:45:35.232Z,23.19
2019-02-22T17:48:39.378Z,23.19
2019-02-22T17:51:43.677Z,23.28
2019-02-22T17:54:47.874Z,23.14
2019-02-22T17:57:52.017Z,23.08
2019-02-22T18:00:56.137Z,23.04
2019-02-22T18:04:00.280Z,23.04
2019-02-22T18:07:04.426Z,23.01
2019-02-22T18:10:10.014Z,23.00
2019-02-22T18:13:15.899Z,22.97
2019-02-22T18:16:20.069Z,22.96
2019-02-22T18:19:24.281Z,22.96
2019-02-22T18:22:28.404Z,22.94
2019-02-22T18:25:32.549Z,22.92
2019-02-22T18:28:38.589Z,22.91
2019-02-22T18:31:42.733Z,22.85
2019-02-22T18:34:47.061Z,22.85
2019-02-22T18:37:51.277Z,22.86
2019-02-22T18:40:55.421Z,22.99
2019-02-22T18:43:59.573Z,23.04
2019-02-22T18:47:03.703Z,23.06
2019-02-22T18:50:09.889Z,22.92
2019-02-22T18:53:14.038Z,22.87
2019-02-22T18:56:18.165Z,23.00
2019-02-22T18:59:22.376Z,22.98
2019-02-22T19:02:26.432Z,22.97
2019-02-22T19:05:30.577Z,22.86
2019-02-22T19:08:34.721Z,22.84
2019-02-22T19:11:38.845Z,22.91
2019-02-22T19:14:42.990Z,23.10
2019-02-22T19:17:47.196Z,22.97
2019-02-22T19:20:51.414Z,22.98
2019-02-22T19:23:55.565Z,22.95
2019-02-22T19:26:59.687Z,22.93
2019-02-22T19:30:06.072Z,22.95
2019-02-22T19:33:10.203Z,22.93
2019-02-22T19:36:14.424Z,22.92
2019-02-22T19:39:18.590Z,22.90
2019-02-22T19:42:22.713Z,22.91
2019-02-22T19:45:26.946Z,22.90
2019-02-22T19:48:31.093Z,22.86
2019-02-22T19:51:35.218Z,22.85
2019-02-22T19:54:39.365Z,22.82
2019-02-22T19:57:43.490Z,22.81
2019-02-22T20:00:47.636Z,22.78
2019-02-22T20:03:51.793Z,22.76
2019-02-22T20:06:55.917Z,22.72
2019-02-22T20:10:00.179Z,22.70
2019-02-22T20:13:04.464Z,22.68
2019-02-22T20:16:08.609Z,22.63
2019-02-22T20:19:12.753Z,22.59
2019-02-22T20:22:16.876Z,22.60
2019-02-22T20:25:21.093Z,22.57
2019-02-22T20:28:25.225Z,22.55
2019-02-22T20:31:29.369Z,22.53
2019-02-22T20:34:33.505Z,22.48
2019-02-22T20:37:38.950Z,22.49
2019-02-22T20:40:43.252Z,22.46
2019-02-22T20:43:47.372Z,22.47
2019-02-22T20:46:51.522Z,22.41
2019-02-22T20:49:55.681Z,22.47
2019-02-22T20:52:59.810Z,22.45
2019-02-22T20:56:03.958Z,22.35
2019-02-22T20:59:08.083Z,22.32
2019-02-22T21:02:12.296Z,22.32
2019-02-22T21:05:16.421Z,22.29
2019-02-22T21:08:20.589Z,22.28
2019-02-22T21:11:24.725Z,22.26
2019-02-22T21:14:28.868Z,22.22
2019-02-22T21:17:33.013Z,22.23
2019-02-22T21:20:37.141Z,22.18
2019-02-22T21:23:41.285Z,22.18
2019-02-22T21:26:45.432Z,22.14
2019-02-22T21:29:49.561Z,22.10
2019-02-22T21:32:53.704Z,22.11
2019-02-22T21:35:57.825Z,22.13
2019-02-22T21:39:01.964Z,22.07
2019-02-22T21:42:06.102Z,22.11
2019-02-22T21:45:12.536Z,22.04
2019-02-22T21:48:26.954Z,22.03
2019-02-22T21:51:22.506Z,21.98
2019-02-22T21:54:26.655Z,21.96
2019-02-22T21:57:30.841Z,21.97
2019-02-22T22:00:34.984Z,21.97
2019-02-22T22:03:39.130Z,21.91
2019-02-22T22:06:43.253Z,21.91
2019-02-22T22:09:47.433Z,21.90
2019-02-22T22:12:51.568Z,21.88
2019-02-22T22:15:55.712Z,21.85
2019-02-22T22:18:59.842Z,21.83
2019-02-22T22:22:03.985Z,21.86
2019-02-22T22:25:11.033Z,21.86
2019-02-22T22:28:15.158Z,21.81
2019-02-22T22:31:19.300Z,21.77
2019-02-22T22:34:23.422Z,21.81
2019-02-22T22:37:27.565Z,21.79
2019-02-22T22:40:31.709Z,21.74
2019-02-22T22:43:35.833Z,21.71
2019-02-22T22:46:39.984Z,21.70
2019-02-22T22:49:44.110Z,21.64
2019-02-22T22:52:48.331Z,21.67
2019-02-22T22:55:52.481Z,21.66
2019-02-22T22:58:56.608Z,21.66
2019-02-22T23:02:00.920Z,21.65
2019-02-22T23:05:07.382Z,21.63
2019-02-22T23:08:11.525Z,21.62
2019-02-22T23:11:15.652Z,21.61
2019-02-22T23:14:19.794Z,21.61
2019-02-22T23:17:24.010Z,21.58
2019-02-22T23:20:28.129Z,21.60
2019-02-22T23:23:32.273Z,21.57
2019-02-22T23:26:36.396Z,21.56
2019-02-22T23:29:40.541Z,21.55
2019-02-22T23:32:44.694Z,21.50
2019-02-22T23:35:48.815Z,21.51
2019-02-22T23:38:52.956Z,21.46
2019-02-22T23:41:57.081Z,21.47
2019-02-22T23:45:01.232Z,21.46
2019-02-22T23:48:05.372Z,21.44
2019-02-22T23:51:09.497Z,21.43
2019-02-22T23:54:13.641Z,21.39
2019-02-22T23:57:17.764Z,21.39
